Time;durP1;ratioP1;P1;durP2;ratioP2;P2;SDS_P1;SDS_P2;PMS_P1;PMS_P2;Temp;Humidity;BMP_temperature;BMP_pressure;BME280_temperature;BME280_humidity;BME280_pressure;Samples;Min_cycle;Max_cycle;Signal;HPM_P1;HPM_P2
2022/01/11 00:00:22;;;;;;;;;;;-1.60;99.90;;;;;;4988955;28;19910;-76
2022/01/11 00:02:48;;;;;;;;;;;-1.40;99.90;;;;;;4988905;28;19910;-77
2022/01/11 00:05:22;;;;;;;;;;;-1.40;99.90;;;;;;4989262;28;19964;-76
2022/01/11 00:07:48;;;;;;;;;;;-1.40;99.90;;;;;;4971657;28;19974;-76
2022/01/11 00:10:22;;;;;;;;;;;-1.50;99.90;;;;;;4988989;28;19910;-77
2022/01/11 00:12:47;;;;;;;;;;;-1.40;99.90;;;;;;4988868;28;19910;-76
2022/01/11 00:15:13;;;;;;;;;;;-1.50;99.90;;;;;;4971473;28;19924;-77
2022/01/11 00:17:38;;;;;;;;;;;-1.50;99.90;;;;;;4971258;28;19914;-77
2022/01/11 00:20:06;;;;;;;;;;;-1.50;99.90;;;;;;4971487;28;19914;-77
2022/01/11 00:22:35;;;;;;;;;;;-1.40;99.90;;;;;;4955163;28;19917;-77
2022/01/11 00:25:01;;;;;;;;;;;-1.40;99.90;;;;;;4955518;28;19910;-77
2022/01/11 00:27:26;;;;;;;;;;;-1.50;99.90;;;;;;4955166;28;19961;-77
2022/01/11 00:30:12;;;;;;;;;;;-1.30;99.90;;;;;;4988283;28;19914;-77
2022/01/11 00:32:44;;;;;;;;;;;-1.30;99.90;;;;;;4946578;29;19918;-77
2022/01/11 00:35:11;;;;;;;;;;;-1.30;99.90;;;;;;4950880;29;20310;-77
2022/01/11 00:37:37;;;;;;;;;;;-1.30;99.90;;;;;;4950303;29;19950;-77
2022/01/11 00:40:04;;;;;;;;;;;-1.30;99.90;;;;;;4950730;29;19917;-77
2022/01/11 00:42:31;;;;;;;;;;;-1.40;99.90;;;;;;4966615;29;20001;-77
2022/01/11 00:44:57;;;;;;;;;;;-1.40;99.90;;;;;;4950559;29;19910;-77
2022/01/11 00:47:23;;;;;;;;;;;-1.40;99.90;;;;;;4950674;29;19910;-77
2022/01/11 00:49:51;;;;;;;;;;;-1.40;99.90;;;;;;4966757;29;19910;-77
2022/01/11 00:52:16;;;;;;;;;;;-1.50;99.90;;;;;;4966499;29;19911;-77
2022/01/11 00:54:42;;;;;;;;;;;-1.40;99.90;;;;;;4966474;29;19925;-76
2022/01/11 00:57:07;;;;;;;;;;;-1.30;99.90;;;;;;4943852;29;19973;-77
2022/01/11 00:59:33;;;;;;;;;;;-1.40;99.90;;;;;;4931204;29;19910;-78
2022/01/11 01:01:59;;;;;;;;;;;-1.30;99.90;;;;;;4966251;29;20494;-77
2022/01/11 01:04:24;;;;;;;;;;;-1.30;99.90;;;;;;4966198;29;20087;-77
2022/01/11 01:06:50;;;;;;;;;;;-1.40;99.90;;;;;;4950321;29;19918;-77
2022/01/11 01:09:15;;;;;;;;;;;-1.40;99.90;;;;;;4976201;28;19964;-77
2022/01/11 01:11:46;;;;;;;;;;;-1.50;99.90;;;;;;4989827;28;19909;-77
2022/01/11 01:14:12;;;;;;;;;;;-1.50;99.90;;;;;;4989670;28;19940;-77
2022/01/11 01:16:39;;;;;;;;;;;-1.50;99.90;;;;;;4989819;28;19933;-77
2022/01/11 01:19:09;;;;;;;;;;;-1.40;99.90;;;;;;5007310;28;19928;-77
2022/01/11 01:21:38;;;;;;;;;;;-1.40;99.90;;;;;;4989776;28;19909;-77
2022/01/11 01:24:08;;;;;;;;;;;-1.40;99.90;;;;;;5007321;28;19925;-77
2022/01/11 01:26:34;;;;;;;;;;;-1.40;99.90;;;;;;4989627;28;19910;-77
2022/01/11 01:29:00;;;;;;;;;;;-1.30;99.90;;;;;;4989423;28;19936;-77
2022/01/11 01:31:26;;;;;;;;;;;-1.30;99.90;;;;;;4985693;28;20282;-76
2022/01/11 01:33:52;;;;;;;;;;;-1.30;99.90;;;;;;5006118;28;19956;-77
2022/01/11 01:36:18;;;;;;;;;;;-1.40;99.90;;;;;;4989530;28;19956;-77
2022/01/11 01:38:43;;;;;;;;;;;-1.40;99.90;;;;;;5006789;28;20005;-77
2022/01/11 01:41:15;;;;;;;;;;;-1.40;99.90;;;;;;4989446;28;19936;-77
2022/01/11 01:43:40;;;;;;;;;;;-1.40;99.90;;;;;;4985967;28;20259;-76
2022/01/11 01:46:06;;;;;;;;;;;-1.40;99.90;;;;;;4987170;28;19933;-77
2022/01/11 01:48:32;;;;;;;;;;;-1.40;99.90;;;;;;4986414;28;19910;-77
2022/01/11 01:50:57;;;;;;;;;;;-1.40;99.90;;;;;;4969946;28;19910;-76
2022/01/11 01:53:23;;;;;;;;;;;-1.40;99.90;;;;;;4986949;28;19910;-76
2022/01/11 01:55:49;;;;;;;;;;;-1.40;99.90;;;;;;4987168;28;19918;-77
2022/01/11 01:58:15;;;;;;;;;;;-1.30;99.90;;;;;;4987104;28;19917;-77
2022/01/11 02:00:45;;;;;;;;;;;-1.30;99.90;;;;;;4969323;28;19910;-77
2022/01/11 02:03:12;;;;;;;;;;;-1.30;99.90;;;;;;4969681;28;19929;-78
2022/01/11 02:05:41;;;;;;;;;;;-1.30;99.90;;;;;;4986918;28;19910;-77
2022/01/11 02:08:07;;;;;;;;;;;-1.20;99.90;;;;;;4969693;28;19944;-77
2022/01/11 02:10:34;;;;;;;;;;;-1.10;99.90;;;;;;4969509;28;19910;-77
2022/01/11 02:13:02;;;;;;;;;;;-1.20;99.90;;;;;;4969465;28;20245;-76
2022/01/11 02:15:28;;;;;;;;;;;-1.10;99.90;;;;;;4969394;28;19925;-76
2022/01/11 02:17:54;;;;;;;;;;;-1.10;99.90;;;;;;4969494;28;20363;-76
2022/01/11 02:20:19;;;;;;;;;;;-1.10;99.90;;;;;;4969526;28;20263;-76
2022/01/11 02:22:47;;;;;;;;;;;-1.10;99.90;;;;;;4986735;28;19933;-77
2022/01/11 02:25:14;;;;;;;;;;;-1.10;99.90;;;;;;4969443;28;20362;-77
2022/01/11 02:27:40;;;;;;;;;;;-1.10;99.90;;;;;;4988139;28;19922;-77
2022/01/11 02:33:23;;;;;;;;;;;-1.00;99.90;;;;;;5004553;28;19948;-77
2022/01/11 02:35:55;;;;;;;;;;;-1.00;99.90;;;;;;4973633;28;19918;-77
2022/01/11 02:38:20;;;;;;;;;;;-1.10;99.90;;;;;;4989186;28;20292;-77
2022/01/11 02:40:46;;;;;;;;;;;-1.00;99.90;;;;;;4989038;28;19916;-77
2022/01/11 02:43:13;;;;;;;;;;;-1.00;99.90;;;;;;4988927;28;19910;-77
2022/01/11 02:45:38;;;;;;;;;;;-1.00;99.90;;;;;;4989395;28;19909;-77
2022/01/11 02:48:04;;;;;;;;;;;-0.90;99.90;;;;;;4989023;28;20045;-76
2022/01/11 02:50:30;;;;;;;;;;;-0.90;99.90;;;;;;4973289;28;19910;-77
2022/01/11 02:52:56;;;;;;;;;;;-1.00;99.90;;;;;;4988900;28;19945;-77
2022/01/11 02:55:23;;;;;;;;;;;-0.90;99.90;;;;;;5006485;28;19917;-77
2022/01/11 02:57:49;;;;;;;;;;;-0.90;99.90;;;;;;4989018;28;19909;-77
2022/01/11 03:00:21;;;;;;;;;;;-1.00;99.90;;;;;;4990020;28;19914;-79
2022/01/11 03:02:46;;;;;;;;;;;-1.00;99.90;;;;;;4976230;28;19910;-76
2022/01/11 03:05:15;;;;;;;;;;;-1.00;99.90;;;;;;4992884;28;19909;-77
2022/01/11 03:07:43;;;;;;;;;;;-0.90;99.90;;;;;;4976240;28;19936;-77
2022/01/11 03:10:32;;;;;;;;;;;-0.90;99.90;;;;;;4976131;28;19910;-76
2022/01/11 03:12:56;;;;;;;;;;;-0.90;99.90;;;;;;5007675;28;19910;-77
2022/01/11 03:15:25;;;;;;;;;;;-0.90;99.90;;;;;;4975900;28;20436;-77
2022/01/11 03:17:56;;;;;;;;;;;-0.90;99.90;;;;;;4993180;28;19945;-76
2022/01/11 03:20:22;;;;;;;;;;;-0.90;99.90;;;;;;4975806;28;19910;-76
2022/01/11 03:22:49;;;;;;;;;;;-0.90;99.90;;;;;;4991866;28;19910;-77
2022/01/11 03:25:17;;;;;;;;;;;-0.90;99.90;;;;;;4991872;28;20008;-77
2022/01/11 03:27:43;;;;;;;;;;;-0.90;99.90;;;;;;4975617;28;19916;-76
2022/01/11 03:30:12;;;;;;;;;;;-0.90;99.90;;;;;;4975911;28;19913;-76
2022/01/11 03:32:40;;;;;;;;;;;-0.90;99.90;;;;;;4975497;28;20004;-77
2022/01/11 03:35:13;;;;;;;;;;;-0.80;99.90;;;;;;4991572;28;20358;-77
2022/01/11 03:37:41;;;;;;;;;;;-0.90;99.90;;;;;;4991521;28;19913;-77
2022/01/11 03:40:09;;;;;;;;;;;-0.90;99.90;;;;;;4975364;28;19933;-76
2022/01/11 03:42:35;;;;;;;;;;;-0.90;99.90;;;;;;4991345;28;19916;-77
2022/01/11 03:45:01;;;;;;;;;;;-0.80;99.90;;;;;;4991508;28;20004;-77
2022/01/11 03:47:27;;;;;;;;;;;-0.80;99.90;;;;;;4991176;28;19910;-76
2022/01/11 03:49:54;;;;;;;;;;;-0.80;99.90;;;;;;4975455;28;19917;-77
2022/01/11 03:52:20;;;;;;;;;;;-0.80;99.90;;;;;;4975072;28;20400;-77
2022/01/11 03:57:23;;;;;;;;;;;-0.70;99.90;;;;;;4991137;28;19910;-77
2022/01/11 03:59:49;;;;;;;;;;;-0.70;99.90;;;;;;4991106;28;19910;-77
2022/01/11 04:02:14;;;;;;;;;;;-0.70;99.90;;;;;;4990923;28;19909;-77
2022/01/11 04:04:40;;;;;;;;;;;-0.70;99.90;;;;;;5008788;28;19910;-77
2022/01/11 04:07:06;;;;;;;;;;;-0.60;99.90;;;;;;4991039;28;19941;-77
2022/01/11 04:09:32;;;;;;;;;;;-0.70;99.90;;;;;;4975031;28;19917;-76
2022/01/11 04:11:58;;;;;;;;;;;-0.60;99.90;;;;;;4989900;28;19959;-77
2022/01/11 04:14:25;;;;;;;;;;;-0.60;99.90;;;;;;4992021;28;19945;-77
2022/01/11 04:16:52;;;;;;;;;;;-0.60;99.90;;;;;;4990687;28;19917;-77
2022/01/11 04:19:18;;;;;;;;;;;-0.60;99.90;;;;;;4990762;28;19909;-77
2022/01/11 04:21:43;;;;;;;;;;;-0.60;99.90;;;;;;4974400;28;19906;-76
2022/01/11 04:24:11;;;;;;;;;;;-0.60;99.90;;;;;;4990791;28;19933;-76
2022/01/11 04:26:37;;;;;;;;;;;-0.60;99.90;;;;;;4974484;28;19910;-76
2022/01/11 04:29:05;;;;;;;;;;;-0.60;99.90;;;;;;4990579;28;20093;-76
2022/01/11 04:31:32;;;;;;;;;;;-0.60;99.90;;;;;;4974286;28;20017;-76
2022/01/11 04:33:57;;;;;;;;;;;-0.50;99.90;;;;;;4974305;28;19917;-76
2022/01/11 04:36:23;;;;;;;;;;;-0.60;99.90;;;;;;4990677;28;19989;-76
2022/01/11 04:38:49;;;;;;;;;;;-0.60;99.90;;;;;;4990652;28;19910;-76
2022/01/11 04:41:15;;;;;;;;;;;-0.60;99.90;;;;;;4974284;28;20341;-76
2022/01/11 04:43:45;;;;;;;;;;;-0.60;99.90;;;;;;4990369;28;19909;-76
2022/01/11 04:46:10;;;;;;;;;;;-0.60;99.90;;;;;;4974259;28;19929;-77
2022/01/11 04:48:37;;;;;;;;;;;-0.50;99.90;;;;;;4990375;28;19920;-76
2022/01/11 04:51:04;;;;;;;;;;;-0.60;99.90;;;;;;4990297;28;19976;-77
2022/01/11 04:53:30;;;;;;;;;;;-0.60;99.90;;;;;;4990294;28;19933;-76
2022/01/11 04:55:57;;;;;;;;;;;-0.60;99.90;;;;;;4974135;28;19918;-76
2022/01/11 04:58:22;;;;;;;;;;;-0.50;99.90;;;;;;4990092;28;19916;-76
2022/01/11 05:00:48;;;;;;;;;;;-0.50;99.90;;;;;;4989920;28;19909;-76
2022/01/11 05:03:15;;;;;;;;;;;-0.60;99.90;;;;;;4989902;28;19909;-76
2022/01/11 05:05:41;;;;;;;;;;;-0.50;99.90;;;;;;4990001;28;19973;-77
2022/01/11 05:08:07;;;;;;;;;;;-0.50;99.90;;;;;;4990078;28;19910;-76
2022/01/11 05:10:32;;;;;;;;;;;-0.50;99.90;;;;;;4973926;28;19948;-76
2022/01/11 05:12:58;;;;;;;;;;;-0.50;99.90;;;;;;4973568;28;19909;-77
2022/01/11 05:15:28;;;;;;;;;;;-0.50;99.90;;;;;;4973803;28;19917;-76
2022/01/11 05:17:54;;;;;;;;;;;-0.60;99.90;;;;;;4989769;28;19917;-76
2022/01/11 05:20:20;;;;;;;;;;;-0.60;99.90;;;;;;4973616;28;19910;-76
2022/01/11 05:22:45;;;;;;;;;;;-0.60;99.90;;;;;;4973301;28;19909;-76
2022/01/11 05:25:13;;;;;;;;;;;-0.50;99.90;;;;;;4989862;28;19935;-77
2022/01/11 05:27:39;;;;;;;;;;;-0.50;99.90;;;;;;4973366;28;19910;-76
2022/01/11 05:30:25;;;;;;;;;;;-0.50;99.90;;;;;;5006966;28;19917;-76
2022/01/11 05:32:50;;;;;;;;;;;-0.50;99.90;;;;;;4930350;29;19971;-76
2022/01/11 05:35:17;;;;;;;;;;;-0.60;99.90;;;;;;4930593;29;19919;-76
2022/01/11 05:37:43;;;;;;;;;;;-0.70;99.90;;;;;;4946510;29;19910;-76
2022/01/11 05:40:09;;;;;;;;;;;-0.60;99.90;;;;;;4930805;29;19911;-76
2022/01/11 05:42:35;;;;;;;;;;;-0.60;99.90;;;;;;4946237;29;19911;-76
2022/01/11 05:45:02;;;;;;;;;;;-0.70;99.90;;;;;;4930635;29;19922;-76
2022/01/11 05:47:29;;;;;;;;;;;-0.60;99.90;;;;;;4930777;29;20035;-76
2022/01/11 05:49:56;;;;;;;;;;;-0.70;99.90;;;;;;4914573;29;19964;-76
2022/01/11 05:52:21;;;;;;;;;;;-0.70;99.90;;;;;;4946325;29;20315;-77
2022/01/11 05:54:47;;;;;;;;;;;-0.70;99.90;;;;;;4930345;29;19982;-76
2022/01/11 05:57:13;;;;;;;;;;;-0.70;99.90;;;;;;4946295;29;19993;-76
2022/01/11 05:59:39;;;;;;;;;;;-0.60;99.90;;;;;;4946150;29;19935;-76
2022/01/11 06:02:06;;;;;;;;;;;-0.70;99.90;;;;;;4946190;29;19911;-76
2022/01/11 06:04:31;;;;;;;;;;;-0.70;99.90;;;;;;4930114;29;19970;-76
2022/01/11 06:06:58;;;;;;;;;;;-0.80;99.90;;;;;;4945990;29;19910;-76
2022/01/11 06:09:26;;;;;;;;;;;-0.80;99.90;;;;;;4947211;28;20003;-76
2022/01/11 06:11:53;;;;;;;;;;;-0.80;99.90;;;;;;4988898;28;19909;-76
2022/01/11 06:14:19;;;;;;;;;;;-0.80;99.90;;;;;;4972768;28;19920;-76
2022/01/11 06:16:44;;;;;;;;;;;-0.80;99.90;;;;;;4988928;28;19913;-76
2022/01/11 06:19:10;;;;;;;;;;;-0.80;99.90;;;;;;4988947;28;19910;-77
2022/01/11 06:21:47;;;;;;;;;;;-0.80;99.90;;;;;;4988550;28;19910;-78
2022/01/11 06:24:13;;;;;;;;;;;-0.80;99.90;;;;;;4972714;28;19910;-77
2022/01/11 06:26:38;;;;;;;;;;;-0.80;99.90;;;;;;4978544;28;20405;-77
2022/01/11 06:29:04;;;;;;;;;;;-0.80;99.90;;;;;;4988024;28;19965;-77
2022/01/11 06:31:32;;;;;;;;;;;-0.90;99.90;;;;;;4971682;28;19917;-78
2022/01/11 06:33:58;;;;;;;;;;;-0.90;99.90;;;;;;4972350;28;19914;-80
2022/01/11 06:36:24;;;;;;;;;;;-0.90;99.90;;;;;;4975357;28;19913;-83
2022/01/11 06:38:50;;;;;;;;;;;-0.80;99.90;;;;;;4973435;28;20076;-79
2022/01/11 06:41:23;;;;;;;;;;;-0.90;99.90;;;;;;4990193;28;19941;-76
2022/01/11 06:43:50;;;;;;;;;;;-1.00;99.90;;;;;;4992641;28;19932;-90
2022/01/11 06:46:16;;;;;;;;;;;-1.00;99.90;;;;;;4976713;28;19909;-89
2022/01/11 06:48:42;;;;;;;;;;;-1.00;99.90;;;;;;4992726;28;20000;-90
2022/01/11 06:51:09;;;;;;;;;;;-1.00;99.90;;;;;;5010237;28;19975;-92
2022/01/11 06:53:42;;;;;;;;;;;-0.90;99.90;;;;;;4983772;28;19973;-77
2022/01/11 06:56:07;;;;;;;;;;;-1.00;99.90;;;;;;4971935;28;20373;-89
2022/01/11 06:58:34;;;;;;;;;;;-0.90;99.90;;;;;;4992075;28;19910;-77
2022/01/11 07:01:00;;;;;;;;;;;-1.00;99.90;;;;;;4987354;28;19933;-77
2022/01/11 07:03:28;;;;;;;;;;;-1.00;99.90;;;;;;4992486;28;20403;-78
2022/01/11 07:06:07;;;;;;;;;;;-1.10;99.90;;;;;;5006128;28;19909;-86
2022/01/11 07:08:34;;;;;;;;;;;-1.10;99.90;;;;;;4992059;28;19909;-86
2022/01/11 07:11:00;;;;;;;;;;;-1.00;99.90;;;;;;4992080;28;19909;-90
2022/01/11 07:13:26;;;;;;;;;;;-1.00;99.90;;;;;;4970422;28;19918;-87
2022/01/11 07:15:51;;;;;;;;;;;-1.10;99.90;;;;;;4991699;28;20286;-92
2022/01/11 07:18:19;;;;;;;;;;;-1.00;99.90;;;;;;4995453;28;19918;-85
2022/01/11 07:20:45;;;;;;;;;;;-1.10;99.90;;;;;;4984106;28;19917;-80
2022/01/11 07:23:18;;;;;;;;;;;-1.10;99.90;;;;;;4986196;28;19910;-84
2022/01/11 07:25:44;;;;;;;;;;;-1.00;99.90;;;;;;4973089;28;19960;-80
2022/01/11 07:28:12;;;;;;;;;;;-1.00;99.90;;;;;;5008263;28;19992;-82
2022/01/11 07:30:37;;;;;;;;;;;-1.10;99.90;;;;;;4983445;28;19914;-77
2022/01/11 07:33:04;;;;;;;;;;;-1.00;99.90;;;;;;4977631;28;19926;-78
2022/01/11 07:35:30;;;;;;;;;;;-1.00;99.90;;;;;;4980847;28;19922;-78
2022/01/11 07:37:57;;;;;;;;;;;-1.00;99.90;;;;;;4974057;28;19921;-78
2022/01/11 07:40:22;;;;;;;;;;;-1.00;99.90;;;;;;4980075;28;19960;-78
2022/01/11 07:42:52;;;;;;;;;;;-1.00;99.90;;;;;;4983642;28;19969;-77
2022/01/11 07:45:35;;;;;;;;;;;-1.00;99.90;;;;;;4974136;28;19914;-78
2022/01/11 07:48:03;;;;;;;;;;;-1.00;99.90;;;;;;4964643;28;19910;-79
2022/01/11 07:50:33;;;;;;;;;;;-1.00;99.90;;;;;;4978949;28;19917;-77
2022/01/11 07:52:59;;;;;;;;;;;-0.90;99.90;;;;;;4980354;28;19969;-78
2022/01/11 07:55:25;;;;;;;;;;;-0.90;99.90;;;;;;4980319;28;19924;-78
2022/01/11 07:57:50;;;;;;;;;;;-0.90;99.90;;;;;;4975285;28;20001;-78
2022/01/11 08:00:17;;;;;;;;;;;-0.90;99.90;;;;;;4964118;28;19914;-78
2022/01/11 08:02:50;;;;;;;;;;;-0.90;99.90;;;;;;4967231;28;19917;-77
2022/01/11 08:05:36;;;;;;;;;;;-0.80;99.90;;;;;;4972805;28;19918;-77
2022/01/11 08:08:03;;;;;;;;;;;-0.80;99.90;;;;;;4983095;28;19910;-77
2022/01/11 08:10:29;;;;;;;;;;;-0.80;99.90;;;;;;4980272;28;19922;-78
2022/01/11 08:12:56;;;;;;;;;;;-0.80;99.90;;;;;;4947821;28;20028;-77
2022/01/11 08:15:22;;;;;;;;;;;-0.80;99.90;;;;;;5002595;28;19924;-77
2022/01/11 08:17:50;;;;;;;;;;;-0.70;99.90;;;;;;5009910;28;19972;-77
2022/01/11 08:20:18;;;;;;;;;;;-0.70;99.90;;;;;;5005344;28;19913;-77
2022/01/11 08:22:48;;;;;;;;;;;-0.70;99.90;;;;;;5015359;28;19909;-78
2022/01/11 08:25:14;;;;;;;;;;;-0.70;99.90;;;;;;5003510;28;19917;-77
2022/01/11 08:27:40;;;;;;;;;;;-0.60;99.90;;;;;;5007253;28;19948;-77
2022/01/11 08:33:22;;;;;;;;;;;-0.60;99.90;;;;;;4953232;29;19933;-86
2022/01/11 08:35:48;;;;;;;;;;;-0.50;99.90;;;;;;4954687;29;19926;-78
2022/01/11 08:38:16;;;;;;;;;;;-0.50;99.90;;;;;;4959348;29;19917;-77
2022/01/11 08:40:43;;;;;;;;;;;-0.40;99.90;;;;;;4965171;29;19921;-77
2022/01/11 08:43:11;;;;;;;;;;;-0.50;99.90;;;;;;4959999;29;19910;-77
2022/01/11 08:45:39;;;;;;;;;;;-0.40;99.90;;;;;;4952617;29;19921;-77
2022/01/11 08:48:10;;;;;;;;;;;-0.40;99.90;;;;;;4967939;28;19910;-78
2022/01/11 08:50:42;;;;;;;;;;;-0.30;99.90;;;;;;4957776;29;20001;-82
2022/01/11 08:53:07;;;;;;;;;;;-0.30;99.90;;;;;;4953316;29;19918;-79
2022/01/11 08:55:35;;;;;;;;;;;-0.20;99.90;;;;;;4954060;29;20335;-76
2022/01/11 08:58:00;;;;;;;;;;;-0.20;99.90;;;;;;4955090;29;19937;-77
2022/01/11 09:00:26;;;;;;;;;;;-0.10;99.90;;;;;;4953289;29;20402;-77
2022/01/11 09:02:58;;;;;;;;;;;0.00;99.90;;;;;;4954720;29;19943;-76
2022/01/11 09:05:26;;;;;;;;;;;0.00;99.90;;;;;;4948115;29;19997;-78
2022/01/11 09:07:58;;;;;;;;;;;0.00;99.90;;;;;;4941829;29;19915;-77
2022/01/11 09:10:27;;;;;;;;;;;0.00;99.90;;;;;;4949005;29;19915;-77
2022/01/11 09:12:52;;;;;;;;;;;0.00;99.90;;;;;;4934586;28;19933;-78
2022/01/11 09:15:19;;;;;;;;;;;0.00;99.90;;;;;;4926441;29;19919;-77
2022/01/11 09:17:45;;;;;;;;;;;-0.10;99.90;;;;;;4941006;29;19974;-77
2022/01/11 09:20:16;;;;;;;;;;;0.00;99.90;;;;;;4941433;29;20301;-77
2022/01/11 09:22:42;;;;;;;;;;;0.10;99.90;;;;;;4924158;29;19919;-77
2022/01/11 09:25:10;;;;;;;;;;;0.20;99.90;;;;;;4926895;29;19911;-78
2022/01/11 09:27:43;;;;;;;;;;;0.10;99.90;;;;;;4923678;29;19919;-78
2022/01/11 09:30:31;;;;;;;;;;;0.30;99.90;;;;;;4925480;29;19911;-78
2022/01/11 09:32:59;;;;;;;;;;;0.30;99.90;;;;;;4904572;29;20395;-78
2022/01/11 09:35:27;;;;;;;;;;;0.20;99.90;;;;;;4911101;29;20071;-77
2022/01/11 09:38:05;;;;;;;;;;;0.30;99.90;;;;;;4910000;29;19911;-77
2022/01/11 09:40:32;;;;;;;;;;;0.30;99.90;;;;;;4913093;29;19915;-77
2022/01/11 09:43:04;;;;;;;;;;;0.30;99.90;;;;;;4911108;29;19967;-80
2022/01/11 09:45:29;;;;;;;;;;;0.40;99.90;;;;;;4896811;29;19911;-78
2022/01/11 09:47:55;;;;;;;;;;;0.40;99.90;;;;;;4912622;29;19981;-78
2022/01/11 09:50:21;;;;;;;;;;;0.50;99.90;;;;;;4908331;29;19918;-78
2022/01/11 09:53:01;;;;;;;;;;;0.50;99.90;;;;;;4937341;29;20227;-81
2022/01/11 09:55:29;;;;;;;;;;;0.50;99.90;;;;;;4908293;29;19926;-77
2022/01/11 09:57:55;;;;;;;;;;;0.40;99.90;;;;;;4911089;29;19915;-76
2022/01/11 10:00:53;;;;;;;;;;;0.50;99.90;;;;;;4914530;29;19995;-77
2022/01/11 10:04:00;;;;;;;;;;;0.70;99.90;;;;;;4928948;29;19922;-76
2022/01/11 10:06:42;;;;;;;;;;;0.80;99.90;;;;;;4924486;29;19977;-76
2022/01/11 10:09:12;;;;;;;;;;;0.80;99.90;;;;;;4914218;29;19961;-76
2022/01/11 10:11:40;;;;;;;;;;;0.80;99.90;;;;;;4956894;28;19940;-78
2022/01/11 10:14:20;;;;;;;;;;;0.70;99.90;;;;;;4932247;28;19926;-76
2022/01/11 10:16:46;;;;;;;;;;;0.80;99.90;;;;;;4982212;28;19910;-76
2022/01/11 10:19:23;;;;;;;;;;;0.80;99.90;;;;;;4978200;28;19910;-76
2022/01/11 10:21:50;;;;;;;;;;;1.00;99.90;;;;;;4981502;28;19957;-77
2022/01/11 10:24:23;;;;;;;;;;;1.20;99.90;;;;;;4960027;28;19942;-76
2022/01/11 10:26:50;;;;;;;;;;;1.30;99.90;;;;;;4981013;28;19910;-76
2022/01/11 10:29:27;;;;;;;;;;;1.50;99.90;;;;;;4978419;28;19917;-76
2022/01/11 10:31:56;;;;;;;;;;;1.40;99.90;;;;;;4934821;29;19919;-75
2022/01/11 10:34:29;;;;;;;;;;;1.60;99.90;;;;;;4962705;29;19926;-75
2022/01/11 10:36:55;;;;;;;;;;;1.70;99.90;;;;;;4938356;29;19910;-75
2022/01/11 10:39:32;;;;;;;;;;;1.80;99.90;;;;;;4953500;29;19944;-76
2022/01/11 10:42:02;;;;;;;;;;;1.70;99.90;;;;;;4959960;28;19933;-76
2022/01/11 10:45:03;;;;;;;;;;;1.70;99.90;;;;;;4954074;29;19910;-75
2022/01/11 10:47:36;;;;;;;;;;;1.60;99.90;;;;;;4937432;29;19914;-76
2022/01/11 10:50:08;;;;;;;;;;;1.60;99.90;;;;;;4953687;28;20001;-75
2022/01/11 10:52:37;;;;;;;;;;;1.30;99.90;;;;;;4954623;29;19921;-75
2022/01/11 10:55:12;;;;;;;;;;;1.40;99.90;;;;;;4966004;28;19919;-76
2022/01/11 10:57:38;;;;;;;;;;;1.40;99.90;;;;;;4955908;29;19958;-76
2022/01/11 11:00:11;;;;;;;;;;;1.50;99.90;;;;;;4953424;29;19991;-75
2022/01/11 11:02:37;;;;;;;;;;;1.40;99.90;;;;;;4950518;29;19943;-75
2022/01/11 11:05:23;;;;;;;;;;;1.30;99.90;;;;;;4968197;28;19938;-76
2022/01/11 11:07:55;;;;;;;;;;;1.30;99.90;;;;;;4950038;29;19922;-75
2022/01/11 11:10:32;;;;;;;;;;;1.30;99.90;;;;;;4961579;29;19918;-76
2022/01/11 11:12:58;;;;;;;;;;;1.40;99.90;;;;;;4967104;28;20378;-75
2022/01/11 11:15:33;;;;;;;;;;;1.30;99.90;;;;;;4949576;29;19925;-75
2022/01/11 11:17:59;;;;;;;;;;;1.40;99.90;;;;;;4950743;29;20245;-76
2022/01/11 11:20:38;;;;;;;;;;;1.40;99.90;;;;;;4960041;28;20367;-77
2022/01/11 11:23:04;;;;;;;;;;;1.40;99.90;;;;;;4961094;29;19953;-77
2022/01/11 11:25:30;;;;;;;;;;;1.60;99.90;;;;;;4965407;29;20073;-76
2022/01/11 11:27:55;;;;;;;;;;;1.60;99.90;;;;;;4963166;29;19938;-76
2022/01/11 11:30:21;;;;;;;;;;;1.80;99.90;;;;;;4869859;23;20709;-77
2022/01/11 11:32:47;;;;;;;;;;;1.90;99.90;;;;;;5020909;28;19917;-76
2022/01/11 11:35:14;;;;;;;;;;;1.90;99.90;;;;;;5041223;28;19917;-78
2022/01/11 11:37:40;;;;;;;;;;;1.80;99.90;;;;;;5020191;28;19937;-77
2022/01/11 11:40:07;;;;;;;;;;;1.80;99.90;;;;;;5010893;28;19920;-78
2022/01/11 11:42:33;;;;;;;;;;;1.80;99.90;;;;;;5017354;28;19928;-76
2022/01/11 11:44:59;;;;;;;;;;;2.00;99.90;;;;;;5003617;28;20961;-79
2022/01/11 11:47:30;;;;;;;;;;;2.00;99.90;;;;;;5010492;28;19909;-78
2022/01/11 11:49:56;;;;;;;;;;;2.00;99.90;;;;;;5006920;28;19976;-78
2022/01/11 11:52:22;;;;;;;;;;;2.20;99.90;;;;;;5026900;28;19916;-79
2022/01/11 11:54:53;;;;;;;;;;;2.00;99.90;;;;;;5007946;28;20377;-75
2022/01/11 11:57:20;;;;;;;;;;;1.90;99.90;;;;;;5005042;28;19910;-78
2022/01/11 11:59:51;;;;;;;;;;;1.90;99.90;;;;;;4986349;28;19916;-78
2022/01/11 12:02:30;;;;;;;;;;;2.00;99.90;;;;;;5017187;28;19910;-78
2022/01/11 12:04:56;;;;;;;;;;;2.20;99.90;;;;;;4981013;28;19921;-77
2022/01/11 12:07:32;;;;;;;;;;;2.20;99.90;;;;;;4996162;28;19909;-77
2022/01/11 12:09:58;;;;;;;;;;;2.30;99.90;;;;;;5013212;28;20266;-76
2022/01/11 12:12:38;;;;;;;;;;;2.40;99.90;;;;;;5002403;28;19913;-77
2022/01/11 12:15:22;;;;;;;;;;;2.40;99.90;;;;;;4991583;28;19925;-76
2022/01/11 12:17:48;;;;;;;;;;;2.50;99.90;;;;;;5027383;28;19910;-76
2022/01/11 12:20:33;;;;;;;;;;;2.50;99.90;;;;;;5040960;28;19913;-76
2022/01/11 12:22:58;;;;;;;;;;;2.60;99.90;;;;;;5012845;28;19925;-76
2022/01/11 12:25:37;;;;;;;;;;;2.50;99.90;;;;;;5012156;28;19970;-77
2022/01/11 12:28:05;;;;;;;;;;;2.50;99.90;;;;;;4983211;28;20380;-76
2022/01/11 12:30:34;;;;;;;;;;;2.60;99.90;;;;;;5033563;28;19997;-76
2022/01/11 12:33:08;;;;;;;;;;;2.70;99.90;;;;;;5025561;28;19925;-78
2022/01/11 12:35:48;;;;;;;;;;;2.60;99.90;;;;;;5017737;28;19928;-77
2022/01/11 12:38:14;;;;;;;;;;;2.40;99.90;;;;;;5027624;28;19909;-76
2022/01/11 12:40:40;;;;;;;;;;;2.40;99.90;;;;;;5019190;28;19918;-77
2022/01/11 12:43:17;;;;;;;;;;;2.30;99.90;;;;;;5024137;28;20330;-77
2022/01/11 12:46:05;;;;;;;;;;;2.30;99.90;;;;;;5008789;28;19909;-80
2022/01/11 12:48:42;;;;;;;;;;;2.30;99.90;;;;;;5033764;28;19917;-77
2022/01/11 12:51:12;;;;;;;;;;;2.30;99.90;;;;;;4998162;28;19992;-76
2022/01/11 12:53:37;;;;;;;;;;;2.30;99.90;;;;;;4993709;28;19985;-76
2022/01/11 12:56:03;;;;;;;;;;;2.30;99.90;;;;;;5016192;28;19987;-76
2022/01/11 12:58:31;;;;;;;;;;;2.30;99.90;;;;;;5002058;28;19913;-76
2022/01/11 13:00:57;;;;;;;;;;;2.40;99.90;;;;;;5018523;28;19920;-76
2022/01/11 13:03:22;;;;;;;;;;;2.40;99.90;;;;;;4999152;28;19910;-76
2022/01/11 13:05:53;;;;;;;;;;;2.40;99.90;;;;;;4996961;28;20290;-76
2022/01/11 13:08:26;;;;;;;;;;;2.50;99.90;;;;;;4994525;28;19924;-78
2022/01/11 13:10:51;;;;;;;;;;;2.50;99.90;;;;;;5009661;28;19915;-77
2022/01/11 13:13:22;;;;;;;;;;;2.60;99.90;;;;;;5021814;28;19964;-77
2022/01/11 13:15:49;;;;;;;;;;;2.70;99.90;;;;;;5034935;28;19920;-76
2022/01/11 13:18:19;;;;;;;;;;;2.80;99.90;;;;;;5037738;28;20138;-76
2022/01/11 13:20:49;;;;;;;;;;;2.90;99.90;;;;;;5031750;28;19949;-76
2022/01/11 13:23:29;;;;;;;;;;;2.90;99.90;;;;;;5028419;28;19909;-76
2022/01/11 13:25:55;;;;;;;;;;;2.90;99.90;;;;;;5013026;28;19924;-76
2022/01/11 13:28:22;;;;;;;;;;;2.90;99.90;;;;;;5031075;28;19910;-78
2022/01/11 13:30:50;;;;;;;;;;;2.90;99.90;;;;;;5023299;28;19968;-76
2022/01/11 13:33:23;;;;;;;;;;;2.80;99.90;;;;;;5035855;28;20278;-77
2022/01/11 13:35:49;;;;;;;;;;;3.00;99.90;;;;;;5030541;28;19924;-77
2022/01/11 13:38:15;;;;;;;;;;;3.10;99.90;;;;;;5015598;28;19909;-76
2022/01/11 13:40:41;;;;;;;;;;;3.10;99.90;;;;;;5009865;28;19909;-79
2022/01/11 13:43:08;;;;;;;;;;;2.90;99.90;;;;;;5013812;28;19909;-77
2022/01/11 13:45:38;;;;;;;;;;;3.00;99.90;;;;;;5017645;28;20332;-76
2022/01/11 13:48:08;;;;;;;;;;;3.10;99.90;;;;;;5027223;28;19918;-76
2022/01/11 13:50:45;;;;;;;;;;;3.10;99.90;;;;;;5012301;28;19927;-77
2022/01/11 13:53:18;;;;;;;;;;;2.80;99.90;;;;;;5016304;28;20428;-76
2022/01/11 13:55:44;;;;;;;;;;;2.70;99.90;;;;;;5015072;28;19925;-76
2022/01/11 13:58:09;;;;;;;;;;;2.70;99.90;;;;;;4992841;28;20274;-76
2022/01/11 14:00:36;;;;;;;;;;;2.90;99.90;;;;;;5010647;28;19920;-76
2022/01/11 14:03:14;;;;;;;;;;;2.90;99.90;;;;;;5012908;28;19931;-75
2022/01/11 14:05:40;;;;;;;;;;;2.90;99.90;;;;;;5013406;28;20342;-76
2022/01/11 14:08:09;;;;;;;;;;;2.90;99.90;;;;;;4998423;28;19918;-76
2022/01/11 14:10:37;;;;;;;;;;;2.90;99.90;;;;;;5014060;28;19909;-76
2022/01/11 14:13:05;;;;;;;;;;;2.90;99.90;;;;;;5015996;28;19976;-75
2022/01/11 14:15:30;;;;;;;;;;;3.00;99.90;;;;;;5022197;28;20409;-76
2022/01/11 14:17:56;;;;;;;;;;;2.90;99.90;;;;;;5006282;28;19909;-77
2022/01/11 14:20:28;;;;;;;;;;;3.00;99.90;;;;;;5028148;28;19915;-78
2022/01/11 14:23:08;;;;;;;;;;;3.10;99.90;;;;;;5003185;28;19910;-77
2022/01/11 14:25:35;;;;;;;;;;;3.00;99.90;;;;;;5026192;28;19913;-80
2022/01/11 14:28:05;;;;;;;;;;;3.00;99.90;;;;;;5008804;28;20007;-77
2022/01/11 14:30:35;;;;;;;;;;;3.10;99.90;;;;;;5031334;28;19913;-79
2022/01/11 14:33:01;;;;;;;;;;;3.10;99.90;;;;;;5025806;28;19945;-77
2022/01/11 14:35:27;;;;;;;;;;;3.00;99.90;;;;;;5007722;28;19929;-78
2022/01/11 14:38:00;;;;;;;;;;;3.00;99.90;;;;;;5029962;28;19917;-76